^^
Saratoga-Weather Station Historical Data
Daily Summary for June 22, 2020 Units:  Both    English   Metric
Daily Weekly Monthly Yearly Custom
  High: Low: Average:
Temperature: 43.2 °F /  6.2 °C 31.5 °F /  -0.3 °C 34.9 °F /  1.6 °C
Dew Point: 39 °F /  3.9 °C 30.4 °F /  -0.9 °C 33.4 °F /  0.8 °C
Humidity: 96% 85% 94%
Wind Speed: 4mph /  6.4km/h - 0.4mph /  0.6km/h
Wind Gust: 4mph /  6.4km/h - -
Wind- - ESE
Pressure: 30.4 in /  1030.8 hPa 30.4 in /  1029.1 hPa -
Precipitation: 0 in /  0.0 mm    
Historical Graphs
 
 
Tabular Data for June 22, 2020
Time Temperature Dew Point Pressure Wind Wind Speed Wind Gust Humidity Rainfall Rate (Hourly) solar
00:01 32.9 °F /  0.5 °C 31.6 °F /  -0.2 °C 30.4in /  1030.8hPa Calm     95% 0in /  0.0mm 0 W/m2
00:06 33.1 °F /  0.6 °C 31.8 °F /  -0.1 °C 30.4in /  1030.8hPa Calm     95% 0in /  0.0mm 0 W/m2
00:11 33.1 °F /  0.6 °C 32 °F /  0 °C 30.4in /  1030.8hPa Calm     96% 0in /  0.0mm 0 W/m2
00:16 33.1 °F /  0.6 °C 32 °F /  0 °C 30.4in /  1030.8hPa Calm     96% 0in /  0.0mm 0 W/m2
00:21 33.1 °F /  0.6 °C 32 °F /  0 °C 30.4in /  1030.8hPa Calm     96% 0in /  0.0mm 0 W/m2
00:26 33.1 °F /  0.6 °C 32 °F /  0 °C 30.4in /  1030.5hPa Calm     96% 0in /  0.0mm 0 W/m2
00:31 33.1 °F /  0.6 °C 32 °F /  0 °C 30.4in /  1030.5hPa Calm     96% 0in /  0.0mm 0 W/m2
00:36 33.1 °F /  0.6 °C 32 °F /  0 °C 30.4in /  1030.5hPa Calm     96% 0in /  0.0mm 0 W/m2
00:41 33.1 °F /  0.6 °C 32 °F /  0 °C 30.4in /  1030.5hPa Calm     96% 0in /  0.0mm 0 W/m2
00:46 33.1 °F /  0.6 °C 32 °F /  0 °C 30.4in /  1030.5hPa Calm     96% 0in /  0.0mm 0 W/m2
00:51 33.1 °F /  0.6 °C 32 °F /  0 °C 30.4in /  1030.5hPa Calm     96% 0in /  0.0mm 0 W/m2
00:57 33.1 °F /  0.6 °C 31.8 °F /  -0.1 °C 30.4in /  1030.5hPa Calm     95% 0in /  0.0mm 0 W/m2
01:02 32.9 °F /  0.5 °C 31.6 °F /  -0.2 °C 30.4in /  1030.5hPa Calm     95% 0in /  0.0mm 0 W/m2
01:07 32.7 °F /  0.4 °C 31.5 °F /  -0.3 °C 30.4in /  1030.1hPa Calm     95% 0in /  0.0mm 0 W/m2
01:12 32.7 °F /  0.4 °C 31.5 °F /  -0.3 °C 30.4in /  1030.1hPa Calm     95% 0in /  0.0mm 0 W/m2
01:17 32.5 °F /  0.3 °C 31.3 °F /  -0.4 °C 30.4in /  1030.1hPa Calm     95% 0in /  0.0mm 0 W/m2
01:22 32.5 °F /  0.3 °C 31.3 °F /  -0.4 °C 30.4in /  1030.1hPa Calm     95% 0in /  0.0mm 0 W/m2
01:27 32.5 °F /  0.3 °C 31.5 °F /  -0.3 °C 30.4in /  1030.1hPa Calm     96% 0in /  0.0mm 0 W/m2
01:32 32.5 °F /  0.3 °C 31.5 °F /  -0.3 °C 30.4in /  1030.1hPa Calm     96% 0in /  0.0mm 0 W/m2
01:37 32.5 °F /  0.3 °C 31.5 °F /  -0.3 °C 30.4in /  1030.1hPa Calm     96% 0in /  0.0mm 0 W/m2
01:42 32.5 °F /  0.3 °C 31.5 °F /  -0.3 °C 30.4in /  1030.1hPa Calm     96% 0in /  0.0mm 0 W/m2
01:47 32.5 °F /  0.3 °C 31.3 °F /  -0.4 °C 30.4in /  1030.1hPa Calm     95% 0in /  0.0mm 0 W/m2
01:52 32.5 °F /  0.3 °C 31.5 °F /  -0.3 °C 30.4in /  1030.1hPa Calm   1mph /  1.6km/h 96% 0in /  0.0mm 0 W/m2
01:57 32.5 °F /  0.3 °C 31.5 °F /  -0.3 °C 30.4in /  1030.1hPa Calm     96% 0in /  0.0mm 0 W/m2
02:02 32.5 °F /  0.3 °C 31.5 °F /  -0.3 °C 30.4in /  1030.1hPa Calm   1mph /  1.6km/h 96% 0in /  0.0mm 0 W/m2
02:07 32.5 °F /  0.3 °C 31.3 °F /  -0.4 °C 30.4in /  1030.1hPa Calm   1mph /  1.6km/h 95% 0in /  0.0mm 0 W/m2
02:12 32.5 °F /  0.3 °C 31.3 °F /  -0.4 °C 30.4in /  1030.1hPa Calm     95% 0in /  0.0mm 0 W/m2
02:17 32.4 °F /  0.2 °C 31.1 °F /  -0.5 °C 30.4in /  1030.1hPa Calm     95% 0in /  0.0mm 0 W/m2
02:22 32.4 °F /  0.2 °C 31.1 °F /  -0.5 °C 30.4in /  1029.8hPa Calm     95% 0in /  0.0mm 0 W/m2
02:27 32.2 °F /  0.1 °C 30.9 °F /  -0.6 °C 30.4in /  1030.1hPa Calm   1mph /  1.6km/h 95% 0in /  0.0mm 0 W/m2
02:32 32 °F /  0 °C 30.9 °F /  -0.6 °C 30.4in /  1030.1hPa Calm     96% 0in /  0.0mm 0 W/m2
02:37 31.8 °F /  -0.1 °C 30.7 °F /  -0.7 °C 30.4in /  1030.1hPa Calm     96% 0in /  0.0mm 0 W/m2
02:42 31.8 °F /  -0.1 °C 30.7 °F /  -0.7 °C 30.4in /  1029.8hPa Calm     96% 0in /  0.0mm 0 W/m2
02:47 31.6 °F /  -0.2 °C 30.4 °F /  -0.9 °C 30.4in /  1029.8hPa Calm     95% 0in /  0.0mm 0 W/m2
02:52 31.6 °F /  -0.2 °C 30.4 °F /  -0.9 °C 30.4in /  1030.1hPa Calm     95% 0in /  0.0mm 0 W/m2
02:57 31.6 °F /  -0.2 °C 30.6 °F /  -0.8 °C 30.4in /  1030.1hPa Calm     96% 0in /  0.0mm 0 W/m2
03:02 31.6 °F /  -0.2 °C 30.6 °F /  -0.8 °C 30.4in /  1030.1hPa Calm     96% 0in /  0.0mm 0 W/m2
03:07 31.5 °F /  -0.3 °C 30.4 °F /  -0.9 °C 30.4in /  1030.1hPa Calm     96% 0in /  0.0mm 0 W/m2
03:12 31.6 °F /  -0.2 °C 30.6 °F /  -0.8 °C 30.4in /  1030.1hPa SE 0.9mph /  1.4km/h 2mph /  3.2km/h 96% 0in /  0.0mm 0 W/m2
03:17 31.6 °F /  -0.2 °C 30.6 °F /  -0.8 °C 30.4in /  1030.1hPa Calm     96% 0in /  0.0mm 0 W/m2
03:22 31.8 °F /  -0.1 °C 30.7 °F /  -0.7 °C 30.4in /  1030.1hPa Calm   2mph /  3.2km/h 96% 0in /  0.0mm 0 W/m2
03:27 31.8 °F /  -0.1 °C 30.7 °F /  -0.7 °C 30.4in /  1029.8hPa Calm     96% 0in /  0.0mm 0 W/m2
03:32 32.2 °F /  0.1 °C 31.1 °F /  -0.5 °C 30.4in /  1030.1hPa Calm     96% 0in /  0.0mm 0 W/m2
03:37 32.4 °F /  0.2 °C 31.3 °F /  -0.4 °C 30.4in /  1029.8hPa Calm   2mph /  3.2km/h 96% 0in /  0.0mm 0 W/m2
03:42 32.4 °F /  0.2 °C 31.3 °F /  -0.4 °C 30.4in /  1029.8hPa SE 0.9mph /  1.4km/h 1mph /  1.6km/h 96% 0in /  0.0mm 0 W/m2
03:47 32.5 °F /  0.3 °C 31.5 °F /  -0.3 °C 30.4in /  1029.8hPa Calm   2mph /  3.2km/h 96% 0in /  0.0mm 0 W/m2
03:52 32.7 °F /  0.4 °C 31.6 °F /  -0.2 °C 30.4in /  1030.1hPa Calm     96% 0in /  0.0mm 0 W/m2
03:57 32.7 °F /  0.4 °C 31.6 °F /  -0.2 °C 30.4in /  1030.1hPa Calm   1mph /  1.6km/h 96% 0in /  0.0mm 0 W/m2
04:02 32.9 °F /  0.5 °C 31.8 °F /  -0.1 °C 30.4in /  1030.1hPa Calm     96% 0in /  0.0mm 0 W/m2
04:07 33.1 °F /  0.6 °C 32 °F /  0 °C 30.4in /  1029.8hPa Calm     96% 0in /  0.0mm 0 W/m2
04:12 33.1 °F /  0.6 °C 32 °F /  0 °C 30.4in /  1029.8hPa Calm     96% 0in /  0.0mm 0 W/m2
04:17 33.3 °F /  0.7 °C 32.2 °F /  0.1 °C 30.4in /  1029.8hPa Calm     96% 0in /  0.0mm 0 W/m2
04:22 33.3 °F /  0.7 °C 32.2 °F /  0.1 °C 30.4in /  1029.8hPa Calm     96% 0in /  0.0mm 0 W/m2
04:27 33.4 °F /  0.8 °C 32.4 °F /  0.2 °C 30.4in /  1029.8hPa Calm   1mph /  1.6km/h 96% 0in /  0.0mm 0 W/m2
04:32 33.4 °F /  0.8 °C 32.4 °F /  0.2 °C 30.4in /  1029.8hPa Calm   2mph /  3.2km/h 96% 0in /  0.0mm 0 W/m2
04:37 33.4 °F /  0.8 °C 32.4 °F /  0.2 °C 30.4in /  1029.8hPa Calm     96% 0in /  0.0mm 0 W/m2
04:42 33.4 °F /  0.8 °C 32.4 °F /  0.2 °C 30.4in /  1029.8hPa SE 0.9mph /  1.4km/h 2mph /  3.2km/h 96% 0in /  0.0mm 0 W/m2
04:47 33.4 °F /  0.8 °C 32.4 °F /  0.2 °C 30.4in /  1030.1hPa Calm     96% 0in /  0.0mm 0 W/m2
04:52 33.4 °F /  0.8 °C 32.4 °F /  0.2 °C 30.4in /  1029.8hPa Calm   2mph /  3.2km/h 96% 0in /  0.0mm 0 W/m2
04:57 33.4 °F /  0.8 °C 32.4 °F /  0.2 °C 30.4in /  1030.1hPa Calm     96% 0in /  0.0mm 0 W/m2
05:02 33.6 °F /  0.9 °C 32.5 °F /  0.3 °C 30.4in /  1030.1hPa Calm     96% 0in /  0.0mm 0 W/m2
05:07 33.6 °F /  0.9 °C 32.5 °F /  0.3 °C 30.4in /  1030.1hPa Calm     96% 0in /  0.0mm 0 W/m2
05:12 33.6 °F /  0.9 °C 32.5 °F /  0.3 °C 30.4in /  1030.1hPa Calm   2mph /  3.2km/h 96% 0in /  0.0mm 0 W/m2
05:17 33.8 °F /  1 °C 32.7 °F /  0.4 °C 30.4in /  1030.1hPa SE 2mph /  3.2km/h 2mph /  3.2km/h 96% 0in /  0.0mm 0 W/m2
05:22 34 °F /  1.1 °C 32.9 °F /  0.5 °C 30.4in /  1029.8hPa ESE 2.9mph /  4.7km/h 4mph /  6.4km/h 96% 0in /  0.0mm 0 W/m2
05:27 33.8 °F /  1 °C 32.7 °F /  0.4 °C 30.4in /  1030.1hPa NW 2mph /  3.2km/h 3mph /  4.8km/h 96% 0in /  0.0mm 0 W/m2
05:32 33.6 °F /  0.9 °C 32.5 °F /  0.3 °C 30.4in /  1029.8hPa ESE 4mph /  6.4km/h 4mph /  6.4km/h 96% 0in /  0.0mm 0 W/m2
05:37 33.8 °F /  1 °C 32.7 °F /  0.4 °C 30.4in /  1030.1hPa Calm   2mph /  3.2km/h 96% 0in /  0.0mm 0 W/m2
05:42 33.6 °F /  0.9 °C 32.5 °F /  0.3 °C 30.4in /  1030.1hPa Calm     96% 0in /  0.0mm 0 W/m2
05:47 33.6 °F /  0.9 °C 32.5 °F /  0.3 °C 30.4in /  1030.1hPa ENE 0.9mph /  1.4km/h 1mph /  1.6km/h 96% 0in /  0.0mm 0 W/m2
05:53 33.8 °F /  1 °C 32.7 °F /  0.4 °C 30.4in /  1030.1hPa Calm   1mph /  1.6km/h 96% 0in /  0.0mm 0 W/m2
05:58 33.8 °F /  1 °C 32.7 °F /  0.4 °C 30.4in /  1030.1hPa Calm     96% 0in /  0.0mm 0 W/m2
06:03 34 °F /  1.1 °C 32.9 °F /  0.5 °C 30.4in /  1029.8hPa ENE 2mph /  3.2km/h 2mph /  3.2km/h 96% 0in /  0.0mm 0 W/m2
06:08 34.2 °F /  1.2 °C 33.1 °F /  0.6 °C 30.4in /  1029.8hPa Calm   3mph /  4.8km/h 96% 0in /  0.0mm 0 W/m2
06:13 34.2 °F /  1.2 °C 33.1 °F /  0.6 °C 30.4in /  1029.8hPa East 0.9mph /  1.4km/h 2mph /  3.2km/h 96% 0in /  0.0mm 0 W/m2
06:18 34.2 °F /  1.2 °C 33.1 °F /  0.6 °C 30.4in /  1029.8hPa Calm   2mph /  3.2km/h 96% 0in /  0.0mm 0 W/m2
06:23 34.2 °F /  1.2 °C 33.1 °F /  0.6 °C 30.4in /  1029.8hPa ENE 0.9mph /  1.4km/h 1mph /  1.6km/h 96% 0in /  0.0mm 0 W/m2
06:28 34 °F /  1.1 °C 32.9 °F /  0.5 °C 30.4in /  1029.8hPa Calm   1mph /  1.6km/h 96% 0in /  0.0mm 0 W/m2
06:33 34 °F /  1.1 °C 32.9 °F /  0.5 °C 30.4in /  1029.8hPa ENE 0.9mph /  1.4km/h 1mph /  1.6km/h 96% 0in /  0.0mm 0 W/m2
06:38 34 °F /  1.1 °C 32.9 °F /  0.5 °C 30.4in /  1030.1hPa ENE 0.9mph /  1.4km/h 2mph /  3.2km/h 96% 0in /  0.0mm 0 W/m2
06:43 34 °F /  1.1 °C 32.9 °F /  0.5 °C 30.4in /  1029.8hPa Calm     96% 0in /  0.0mm 0 W/m2
06:48 34.2 °F /  1.2 °C 33.1 °F /  0.6 °C 30.4in /  1029.8hPa Calm     96% 0in /  0.0mm 0 W/m2
06:53 34.2 °F /  1.2 °C 33.1 °F /  0.6 °C 30.4in /  1029.8hPa Calm   1mph /  1.6km/h 96% 0in /  0.0mm 0 W/m2
06:58 34.2 °F /  1.2 °C 33.1 °F /  0.6 °C 30.4in /  1029.8hPa Calm     96% 0in /  0.0mm 0 W/m2
07:03 34.2 °F /  1.2 °C 33.1 °F /  0.6 °C 30.4in /  1029.8hPa ENE 0.9mph /  1.4km/h 1mph /  1.6km/h 96% 0in /  0.0mm 0 W/m2
07:08 34.2 °F /  1.2 °C 32.9 °F /  0.5 °C 30.4in /  1030.1hPa Calm   2mph /  3.2km/h 95% 0in /  0.0mm 0 W/m2
07:13 34.2 °F /  1.2 °C 32.9 °F /  0.5 °C 30.4in /  1030.1hPa East 0.9mph /  1.4km/h 2mph /  3.2km/h 95% 0in /  0.0mm 0 W/m2
07:18 34.2 °F /  1.2 °C 32.9 °F /  0.5 °C 30.4in /  1030.1hPa Calm     95% 0in /  0.0mm 0 W/m2
07:23 34.2 °F /  1.2 °C 32.9 °F /  0.5 °C 30.4in /  1029.8hPa Calm   2mph /  3.2km/h 95% 0in /  0.0mm 0 W/m2
07:28 34.2 °F /  1.2 °C 32.9 °F /  0.5 °C 30.4in /  1029.8hPa Calm   2mph /  3.2km/h 95% 0in /  0.0mm 0 W/m2
07:33 34.3 °F /  1.3 °C 33.1 °F /  0.6 °C 30.4in /  1029.8hPa Calm   1mph /  1.6km/h 95% 0in /  0.0mm 0 W/m2
07:38 34.3 °F /  1.3 °C 33.1 °F /  0.6 °C 30.4in /  1029.8hPa Calm     95% 0in /  0.0mm 0 W/m2
07:43 34.3 °F /  1.3 °C 33.1 °F /  0.6 °C 30.4in /  1029.8hPa Calm     95% 0in /  0.0mm 0 W/m2
07:48 34.5 °F /  1.4 °C 33.3 °F /  0.7 °C 30.4in /  1029.8hPa Calm   1mph /  1.6km/h 95% 0in /  0.0mm 0 W/m2
07:53 34.5 °F /  1.4 °C 33.3 °F /  0.7 °C 30.4in /  1029.8hPa Calm     95% 0in /  0.0mm 0 W/m2
07:58 34.7 °F /  1.5 °C 33.4 °F /  0.8 °C 30.4in /  1029.8hPa Calm   1mph /  1.6km/h 95% 0in /  0.0mm 0 W/m2
08:03 34.9 °F /  1.6 °C 33.6 °F /  0.9 °C 30.4in /  1029.8hPa NE 0.9mph /  1.4km/h 1mph /  1.6km/h 95% 0in /  0.0mm 0 W/m2
08:08 35.1 °F /  1.7 °C 33.8 °F /  1 °C 30.4in /  1029.8hPa Calm   2mph /  3.2km/h 95% 0in /  0.0mm 0 W/m2
08:13 35.2 °F /  1.8 °C 34 °F /  1.1 °C 30.4in /  1029.8hPa East 0.9mph /  1.4km/h 2mph /  3.2km/h 95% 0in /  0.0mm 5 W/m2
08:18 35.2 °F /  1.8 °C 34 °F /  1.1 °C 30.4in /  1029.8hPa East 0.9mph /  1.4km/h 2mph /  3.2km/h 95% 0in /  0.0mm 7 W/m2
08:23 35.2 °F /  1.8 °C 34 °F /  1.1 °C 30.4in /  1029.8hPa East 2mph /  3.2km/h 3mph /  4.8km/h 95% 0in /  0.0mm 9 W/m2
08:28 35.1 °F /  1.7 °C 33.8 °F /  1 °C 30.4in /  1029.8hPa East 2mph /  3.2km/h 2mph /  3.2km/h 95% 0in /  0.0mm 12 W/m2
08:33 35.1 °F /  1.7 °C 33.8 °F /  1 °C 30.4in /  1029.8hPa Calm   3mph /  4.8km/h 95% 0in /  0.0mm 18 W/m2
08:38 35.1 °F /  1.7 °C 33.8 °F /  1 °C 30.4in /  1029.8hPa Calm     95% 0in /  0.0mm 21 W/m2
08:43 35.1 °F /  1.7 °C 33.8 °F /  1 °C 30.4in /  1029.8hPa East 2mph /  3.2km/h 2mph /  3.2km/h 95% 0in /  0.0mm 26 W/m2
08:48 35.1 °F /  1.7 °C 33.8 °F /  1 °C 30.4in /  1029.8hPa Calm   2mph /  3.2km/h 95% 0in /  0.0mm 30 W/m2
08:53 35.1 °F /  1.7 °C 33.8 °F /  1 °C 30.4in /  1029.5hPa Calm   2mph /  3.2km/h 95% 0in /  0.0mm 33 W/m2
08:58 35.2 °F /  1.8 °C 34 °F /  1.1 °C 30.4in /  1029.8hPa Calm     95% 0in /  0.0mm 33 W/m2
09:03 35.2 °F /  1.8 °C 34 °F /  1.1 °C 30.4in /  1029.8hPa Calm   1mph /  1.6km/h 95% 0in /  0.0mm 37 W/m2
09:08 35.2 °F /  1.8 °C 34 °F /  1.1 °C 30.4in /  1029.5hPa Calm   2mph /  3.2km/h 95% 0in /  0.0mm 46 W/m2
09:13 35.2 °F /  1.8 °C 34 °F /  1.1 °C 30.4in /  1029.8hPa Calm     95% 0in /  0.0mm 54 W/m2
09:18 35.4 °F /  1.9 °C 34.2 °F /  1.2 °C 30.4in /  1029.8hPa Calm     95% 0in /  0.0mm 56 W/m2
09:23 35.4 °F /  1.9 °C 34.2 °F /  1.2 °C 30.4in /  1029.8hPa Calm     95% 0in /  0.0mm 53 W/m2
09:28 35.8 °F /  2.1 °C 34.5 °F /  1.4 °C 30.4in /  1029.8hPa Calm     95% 0in /  0.0mm 51 W/m2
09:33 35.8 °F /  2.1 °C 34.5 °F /  1.4 °C 30.4in /  1029.8hPa Calm     95% 0in /  0.0mm 54 W/m2
09:38 36 °F /  2.2 °C 34.7 °F /  1.5 °C 30.4in /  1029.8hPa Calm     95% 0in /  0.0mm 62 W/m2
09:43 36.1 °F /  2.3 °C 34.9 °F /  1.6 °C 30.4in /  1029.8hPa Calm     95% 0in /  0.0mm 65 W/m2
09:48 36.3 °F /  2.4 °C 35.1 °F /  1.7 °C 30.4in /  1029.8hPa East 0.9mph /  1.4km/h 2mph /  3.2km/h 95% 0in /  0.0mm 65 W/m2
09:53 36.3 °F /  2.4 °C 34.7 °F /  1.5 °C 30.4in /  1029.8hPa Calm     94% 0in /  0.0mm 69 W/m2
09:58 36.5 °F /  2.5 °C 34.9 °F /  1.6 °C 30.4in /  1029.8hPa Calm     94% 0in /  0.0mm 63 W/m2
10:03 36.7 °F /  2.6 °C 35.1 °F /  1.7 °C 30.4in /  1029.8hPa Calm     94% 0in /  0.0mm 62 W/m2
10:08 36.9 °F /  2.7 °C 35.2 °F /  1.8 °C 30.4in /  1029.5hPa Calm     94% 0in /  0.0mm 72 W/m2
10:13 37 °F /  2.8 °C 35.4 °F /  1.9 °C 30.4in /  1029.8hPa Calm     94% 0in /  0.0mm 93 W/m2
10:18 37.2 °F /  2.9 °C 35.6 °F /  2 °C 30.4in /  1029.8hPa Calm     94% 0in /  0.0mm 98 W/m2
10:23 37.6 °F /  3.1 °C 36 °F /  2.2 °C 30.4in /  1029.8hPa Calm     94% 0in /  0.0mm 84 W/m2
10:28 37.8 °F /  3.2 °C 36.1 °F /  2.3 °C 30.4in /  1029.5hPa East 2mph /  3.2km/h 2mph /  3.2km/h 94% 0in /  0.0mm 79 W/m2
10:33 38.1 °F /  3.4 °C 36.3 °F /  2.4 °C 30.4in /  1029.5hPa Calm   1mph /  1.6km/h 93% 0in /  0.0mm 97 W/m2
10:38 38.5 °F /  3.6 °C 36.7 °F /  2.6 °C 30.4in /  1029.8hPa Calm   1mph /  1.6km/h 93% 0in /  0.0mm 113 W/m2
10:43 38.8 °F /  3.8 °C 37 °F /  2.8 °C 30.4in /  1029.8hPa Calm   1mph /  1.6km/h 93% 0in /  0.0mm 113 W/m2
10:48 39 °F /  3.9 °C 36.9 °F /  2.7 °C 30.4in /  1029.5hPa Calm   3mph /  4.8km/h 92% 0in /  0.0mm 134 W/m2
10:53 39.4 °F /  4.1 °C 37.2 °F /  2.9 °C 30.4in /  1029.5hPa East 2.9mph /  4.7km/h 3mph /  4.8km/h 92% 0in /  0.0mm 158 W/m2
10:58 39.7 °F /  4.3 °C 37.4 °F /  3 °C 30.4in /  1029.5hPa East 2mph /  3.2km/h 3mph /  4.8km/h 91% 0in /  0.0mm 167 W/m2
11:03 40.1 °F /  4.5 °C 37.8 °F /  3.2 °C 30.4in /  1029.8hPa ENE 0.9mph /  1.4km/h 1mph /  1.6km/h 91% 0in /  0.0mm 146 W/m2
11:08 40.5 °F /  4.7 °C 37.8 °F /  3.2 °C 30.4in /  1029.5hPa Calm   1mph /  1.6km/h 90% 0in /  0.0mm 139 W/m2
11:13 40.8 °F /  4.9 °C 38.1 °F /  3.4 °C 30.4in /  1029.5hPa Calm   2mph /  3.2km/h 90% 0in /  0.0mm 139 W/m2
11:18 41.2 °F /  5.1 °C 38.1 °F /  3.4 °C 30.4in /  1029.5hPa Calm   2mph /  3.2km/h 89% 0in /  0.0mm 132 W/m2
11:23 41.4 °F /  5.2 °C 38.1 °F /  3.4 °C 30.4in /  1029.5hPa East 0.9mph /  1.4km/h 2mph /  3.2km/h 88% 0in /  0.0mm 105 W/m2
11:28 41.5 °F /  5.3 °C 38.3 °F /  3.5 °C 30.4in /  1029.5hPa ESE 0.9mph /  1.4km/h 3mph /  4.8km/h 88% 0in /  0.0mm 98 W/m2
11:33 41.5 °F /  5.3 °C 37.9 °F /  3.3 °C 30.4in /  1029.5hPa ESE 2.9mph /  4.7km/h 3mph /  4.8km/h 87% 0in /  0.0mm 100 W/m2
11:38 41.7 °F /  5.4 °C 38.1 °F /  3.4 °C 30.4in /  1029.5hPa ESE 0.9mph /  1.4km/h 2mph /  3.2km/h 87% 0in /  0.0mm 111 W/m2
11:43 41.5 °F /  5.3 °C 37.6 °F /  3.1 °C 30.4in /  1029.5hPa East 2mph /  3.2km/h 3mph /  4.8km/h 86% 0in /  0.0mm 118 W/m2
11:48 41.5 °F /  5.3 °C 37.9 °F /  3.3 °C 30.4in /  1029.5hPa ESE 0.9mph /  1.4km/h 3mph /  4.8km/h 87% 0in /  0.0mm 100 W/m2
11:54 41.7 °F /  5.4 °C 38.1 °F /  3.4 °C 30.4in /  1029.5hPa ESE 0.9mph /  1.4km/h 1mph /  1.6km/h 87% 0in /  0.0mm 91 W/m2
11:59 42.1 °F /  5.6 °C 38.5 °F /  3.6 °C 30.4in /  1029.1hPa ESE 2mph /  3.2km/h 3mph /  4.8km/h 87% 0in /  0.0mm 100 W/m2
12:04 42.3 °F /  5.7 °C 38.7 °F /  3.7 °C 30.4in /  1029.1hPa Calm   2mph /  3.2km/h 87% 0in /  0.0mm 114 W/m2
12:09 42.4 °F /  5.8 °C 38.5 °F /  3.6 °C 30.4in /  1029.1hPa ESE 0.9mph /  1.4km/h 3mph /  4.8km/h 86% 0in /  0.0mm 114 W/m2
12:14 42.8 °F /  6 °C 38.8 °F /  3.8 °C 30.4in /  1029.1hPa ENE 2.9mph /  4.7km/h 4mph /  6.4km/h 86% 0in /  0.0mm 120 W/m2
12:19 43 °F /  6.1 °C 38.8 °F /  3.8 °C 30.4in /  1029.1hPa ENE 0.9mph /  1.4km/h 2mph /  3.2km/h 85% 0in /  0.0mm 121 W/m2
12:24 43 °F /  6.1 °C 38.8 °F /  3.8 °C 30.4in /  1029.1hPa ESE 4mph /  6.4km/h 4mph /  6.4km/h 85% 0in /  0.0mm 125 W/m2
12:29 43.2 °F /  6.2 °C 39 °F /  3.9 °C 30.4in /  1029.1hPa Calm   2mph /  3.2km/h 85% 0in /  0.0mm 120 W/m2
Juneau County Weather
Compliments of Weather Underground - 2 mb